createdAt,value
2019-01-04T00:02:23.779Z,8.00
2019-01-04T00:04:50.590Z,7.30
2019-01-04T00:07:17.434Z,6.80
2019-01-04T00:09:44.231Z,6.90
2019-01-04T00:12:11.146Z,7.17
2019-01-04T00:14:38.094Z,7.00
2019-01-04T00:17:04.890Z,6.20
2019-01-04T00:19:31.789Z,6.33
2019-01-04T00:21:58.721Z,6.50
2019-01-04T00:24:25.520Z,6.57
2019-01-04T00:26:52.436Z,6.50
2019-01-04T00:29:19.397Z,5.90
2019-01-04T00:31:46.414Z,5.50
2019-01-04T00:34:13.331Z,5.60
2019-01-04T00:36:40.382Z,5.77
2019-01-04T00:39:07.294Z,5.90
2019-01-04T00:41:34.142Z,5.40
2019-01-04T00:44:01.081Z,5.37
2019-01-04T00:46:27.969Z,6.47
2019-01-04T00:48:54.978Z,5.93
2019-01-04T00:51:21.824Z,6.00
2019-01-04T00:53:48.858Z,6.20
2019-01-04T00:57:10.383Z,6.23
2019-01-04T01:00:15.086Z,5.13
2019-01-04T01:03:03.161Z,6.17
2019-01-04T01:05:54.647Z,5.53
2019-01-04T01:09:08.106Z,6.03
2019-01-04T01:12:20.087Z,6.87
2019-01-04T01:15:25.209Z,6.90
2019-01-04T01:18:38.882Z,7.37
2019-01-04T01:21:31.866Z,8.57
2019-01-04T01:24:28.542Z,7.80
2019-01-04T01:27:28.904Z,8.00
2019-01-04T01:30:59.250Z,8.57
2019-01-04T01:33:46.013Z,8.10
2019-01-04T01:36:55.826Z,9.43
2019-01-04T01:39:58.585Z,8.83
2019-01-04T01:42:52.714Z,8.63
2019-01-04T01:45:58.467Z,9.47
2019-01-04T01:48:48.390Z,9.97
2019-01-04T01:51:31.121Z,10.33
2019-01-04T01:53:57.937Z,10.50
2019-01-04T01:56:24.730Z,10.93
2019-01-04T01:58:51.582Z,10.87
2019-01-04T02:01:18.493Z,10.70
2019-01-04T02:03:45.305Z,11.50
2019-01-04T02:06:12.267Z,10.57
2019-01-04T02:08:39.060Z,11.37
2019-01-04T02:11:05.970Z,10.83
2019-01-04T02:13:32.890Z,11.27
2019-01-04T02:15:59.699Z,11.33
2019-01-04T02:18:26.691Z,12.07
2019-01-04T02:20:53.543Z,11.90
2019-01-04T02:23:20.342Z,11.83
2019-01-04T02:25:47.246Z,12.17
2019-01-04T02:28:14.102Z,12.20
2019-01-04T02:30:40.903Z,11.97
2019-01-04T02:33:07.731Z,12.43
2019-01-04T02:35:34.833Z,12.80
2019-01-04T02:38:01.730Z,11.87
2019-01-04T02:40:28.530Z,12.47
2019-01-04T02:42:55.382Z,12.50
2019-01-04T02:45:22.191Z,12.33
2019-01-04T02:47:49.145Z,11.57
2019-01-04T02:50:16.087Z,11.37
2019-01-04T02:52:42.908Z,10.90
2019-01-04T02:55:09.827Z,11.13
2019-01-04T02:57:36.795Z,11.20
2019-01-04T03:00:04.706Z,10.83
2019-01-04T03:02:31.597Z,10.27
2019-01-04T03:04:58.421Z,10.50
2019-01-04T03:07:25.340Z,10.37
2019-01-04T03:09:52.246Z,10.80
2019-01-04T03:12:19.090Z,9.90
2019-01-04T03:14:45.913Z,9.17
2019-01-04T03:17:12.726Z,9.27
2019-01-04T03:19:39.563Z,8.90
2019-01-04T03:22:06.388Z,8.93
2019-01-04T03:24:33.190Z,8.50
2019-01-04T03:27:00.053Z,8.10
2019-01-04T03:29:26.844Z,8.77
2019-01-04T03:31:53.660Z,8.20
2019-01-04T03:34:20.515Z,8.80
2019-01-04T03:36:47.445Z,7.90
2019-01-04T03:39:14.371Z,8.13
2019-01-04T03:41:41.308Z,8.30
2019-01-04T03:44:08.114Z,7.37
2019-01-04T03:46:34.934Z,7.03
2019-01-04T03:49:01.909Z,6.93
2019-01-04T03:51:28.795Z,7.83
2019-01-04T03:53:55.711Z,6.23
2019-01-04T03:56:22.559Z,6.40
2019-01-04T03:58:49.366Z,7.50
2019-01-04T04:01:16.276Z,6.40
2019-01-04T04:03:43.147Z,6.07
2019-01-04T04:06:09.941Z,5.03
2019-01-04T04:08:36.758Z,5.13
2019-01-04T04:11:03.596Z,4.70
2019-01-04T04:13:30.408Z,5.93
2019-01-04T04:15:57.222Z,5.40
2019-01-04T04:18:24.073Z,4.30
2019-01-04T04:20:50.873Z,4.13
2019-01-04T04:23:17.664Z,4.07
2019-01-04T04:25:44.503Z,3.63
2019-01-04T04:28:11.309Z,5.27
2019-01-04T04:30:38.114Z,4.20
2019-01-04T04:33:05.061Z,3.73
2019-01-04T04:35:31.869Z,3.33
2019-01-04T04:37:58.659Z,2.73
2019-01-04T04:40:25.508Z,3.37
2019-01-04T04:42:52.319Z,2.57
2019-01-04T04:45:19.115Z,2.60
2019-01-04T04:47:45.972Z,3.13
2019-01-04T04:50:12.827Z,2.97
2019-01-04T04:52:39.635Z,2.60
2019-01-04T04:55:06.567Z,2.53
2019-01-04T04:57:33.373Z,2.43
2019-01-04T05:00:00.377Z,2.60
2019-01-04T05:02:27.437Z,2.80
2019-01-04T05:04:54.344Z,3.10
2019-01-04T05:07:21.165Z,2.20
2019-01-04T05:09:47.995Z,2.13
2019-01-04T05:12:14.902Z,2.30
2019-01-04T05:14:41.719Z,2.43
2019-01-04T05:17:08.580Z,2.47
2019-01-04T05:19:35.381Z,2.50
2019-01-04T05:22:02.271Z,2.50
2019-01-04T05:24:29.103Z,3.00
2019-01-04T05:26:55.899Z,2.70
2019-01-04T05:29:22.793Z,3.17
2019-01-04T05:31:49.633Z,2.00
2019-01-04T05:34:16.464Z,2.47
2019-01-04T05:36:43.266Z,2.43
2019-01-04T05:39:10.094Z,4.27
2019-01-04T05:41:36.922Z,2.70
2019-01-04T05:44:03.718Z,3.13
2019-01-04T05:46:30.572Z,3.20
2019-01-04T05:48:57.373Z,1.50
2019-01-04T05:51:24.178Z,4.30
2019-01-04T05:53:51.034Z,3.10
2019-01-04T05:56:17.834Z,2.57
2019-01-04T05:58:44.630Z,2.77
2019-01-04T06:01:11.477Z,2.27
2019-01-04T06:03:38.278Z,2.63
2019-01-04T06:06:05.101Z,2.27
2019-01-04T06:08:31.950Z,2.80
2019-01-04T06:10:58.746Z,2.40
2019-01-04T06:13:25.675Z,2.60
2019-01-04T06:15:52.522Z,2.47
2019-01-04T06:18:19.322Z,2.63
2019-01-04T06:20:46.119Z,3.37
2019-01-04T06:23:12.944Z,2.67
2019-01-04T06:25:39.764Z,2.43
2019-01-04T06:28:06.671Z,2.50
2019-01-04T06:30:33.515Z,3.13
2019-01-04T06:33:00.318Z,2.50
2019-01-04T06:35:27.224Z,2.90
2019-01-04T06:37:54.161Z,2.83
2019-01-04T06:40:20.962Z,2.83
2019-01-04T06:42:47.750Z,3.63
2019-01-04T06:45:14.702Z,2.90
2019-01-04T06:47:42.777Z,2.40
2019-01-04T06:50:09.680Z,3.33
2019-01-04T06:52:36.524Z,3.93
2019-01-04T06:55:44.710Z,3.20
2019-01-04T06:58:11.542Z,3.17
2019-01-04T07:00:38.441Z,2.93
2019-01-04T07:03:05.258Z,3.50
2019-01-04T07:05:32.202Z,2.97
2019-01-04T07:07:59.001Z,2.97
2019-01-04T07:10:25.810Z,2.57
2019-01-04T07:12:52.650Z,3.10
2019-01-04T07:15:19.538Z,3.50
2019-01-04T07:17:47.257Z,3.40
2019-01-04T07:20:14.417Z,3.03
2019-01-04T07:22:41.218Z,2.97
2019-01-04T07:25:08.045Z,3.27
2019-01-04T07:27:34.879Z,3.90
2019-01-04T07:30:01.791Z,3.73
2019-01-04T07:32:28.703Z,3.67
2019-01-04T07:34:55.717Z,3.53
2019-01-04T07:37:22.645Z,3.13
2019-01-04T07:39:49.566Z,3.27
2019-01-04T07:42:16.506Z,3.60
2019-01-04T07:44:43.433Z,3.50
2019-01-04T07:47:10.332Z,3.10
2019-01-04T07:49:37.274Z,3.77
2019-01-04T07:52:04.167Z,3.20
2019-01-04T07:54:30.969Z,3.33
2019-01-04T07:56:57.809Z,2.90
2019-01-04T07:59:24.602Z,3.77
2019-01-04T08:01:51.494Z,3.17
2019-01-04T08:04:18.334Z,3.27
2019-01-04T08:06:45.135Z,3.00
2019-01-04T08:09:12.025Z,3.53
2019-01-04T08:11:38.849Z,3.80
2019-01-04T08:14:05.755Z,3.03
2019-01-04T08:16:32.570Z,3.60
2019-01-04T08:18:59.514Z,3.53
2019-01-04T08:21:26.300Z,3.50
2019-01-04T08:23:53.107Z,3.97
2019-01-04T08:26:20.059Z,4.57
2019-01-04T08:28:46.850Z,4.17
2019-01-04T08:31:13.674Z,2.90
2019-01-04T08:33:40.779Z,4.50
2019-01-04T08:36:07.664Z,3.83
2019-01-04T08:38:34.562Z,4.03
2019-01-04T08:41:01.531Z,3.27
2019-01-04T08:43:28.358Z,3.43
2019-01-04T08:45:55.264Z,3.53
2019-01-04T08:48:22.126Z,3.83
2019-01-04T08:50:48.936Z,3.07
2019-01-04T08:53:15.763Z,3.80
2019-01-04T08:55:42.623Z,3.40
2019-01-04T08:58:09.423Z,3.87
2019-01-04T09:00:36.363Z,4.83
2019-01-04T09:03:03.298Z,3.67
2019-01-04T09:05:30.276Z,3.77
2019-01-04T09:07:57.110Z,3.37
2019-01-04T09:10:24.036Z,3.20
2019-01-04T09:12:50.838Z,3.00
2019-01-04T09:15:17.682Z,3.53
2019-01-04T09:17:44.519Z,3.17
2019-01-04T09:20:11.533Z,3.17
2019-01-04T09:22:39.391Z,3.73
2019-01-04T09:25:07.908Z,4.53
2019-01-04T09:27:34.817Z,3.23
2019-01-04T09:30:01.900Z,3.20
2019-01-04T09:32:28.927Z,3.83
2019-01-04T09:34:55.726Z,4.30
2019-01-04T09:37:22.554Z,3.47
2019-01-04T09:39:49.386Z,3.67
2019-01-04T09:42:18.866Z,5.00
2019-01-04T09:44:45.753Z,4.80
2019-01-04T09:47:12.593Z,3.97
2019-01-04T09:49:39.534Z,3.87
2019-01-04T09:52:06.543Z,3.73
2019-01-04T09:54:33.420Z,3.33
2019-01-04T09:57:00.323Z,3.80
2019-01-04T09:59:27.222Z,3.83
2019-01-04T10:01:54.054Z,4.57
2019-01-04T10:04:20.978Z,3.90
2019-01-04T10:06:47.792Z,3.93
2019-01-04T10:09:14.635Z,3.37
2019-01-04T10:11:41.618Z,2.97
2019-01-04T10:14:08.522Z,3.87
2019-01-04T10:16:35.522Z,3.03
2019-01-04T10:19:02.448Z,2.90
2019-01-04T10:21:29.358Z,2.37
2019-01-04T10:23:56.426Z,2.87
2019-01-04T10:26:23.358Z,1.97
2019-01-04T10:28:50.413Z,2.63
2019-01-04T10:31:17.470Z,2.50
2019-01-04T10:33:44.274Z,2.60
2019-01-04T10:36:11.216Z,3.40
2019-01-04T10:38:38.056Z,2.70
2019-01-04T10:41:04.858Z,3.17
2019-01-04T10:43:31.679Z,2.93
2019-01-04T10:45:58.509Z,3.17
2019-01-04T10:48:25.515Z,2.10
2019-01-04T10:50:52.420Z,2.83
2019-01-04T10:53:19.298Z,2.40
2019-01-04T10:55:46.098Z,2.87
2019-01-04T10:58:12.923Z,2.60
2019-01-04T11:00:39.982Z,2.70
2019-01-04T11:03:06.910Z,2.93
2019-01-04T11:05:33.737Z,2.87
2019-01-04T11:08:00.578Z,3.80
2019-01-04T11:10:27.382Z,3.40
2019-01-04T11:12:54.192Z,4.30
2019-01-04T11:15:21.142Z,4.30
2019-01-04T11:17:48.047Z,3.80
2019-01-04T11:20:43.286Z,4.70
2019-01-04T11:23:40.489Z,4.80
2019-01-04T11:26:31.083Z,4.63
2019-01-04T11:29:45.932Z,4.33
2019-01-04T11:32:23.353Z,3.73
2019-01-04T11:35:33.691Z,3.23
2019-01-04T11:38:38.187Z,3.80
2019-01-04T11:41:31.014Z,3.03
2019-01-04T11:44:09.550Z,3.30
2019-01-04T11:46:53.159Z,3.33
2019-01-04T11:49:53.000Z,3.60
2019-01-04T11:52:31.165Z,3.90
2019-01-04T11:54:57.226Z,2.57
2019-01-04T11:57:24.050Z,2.40
2019-01-04T11:59:50.961Z,2.90
2019-01-04T12:02:17.822Z,2.90
2019-01-04T12:04:44.731Z,2.40
2019-01-04T12:07:11.649Z,1.93
2019-01-04T12:09:38.538Z,2.63
2019-01-04T12:12:05.543Z,1.90
2019-01-04T12:14:32.366Z,2.43
2019-01-04T12:16:59.302Z,1.67
2019-01-04T12:19:26.216Z,1.50
2019-01-04T12:21:53.270Z,1.53
2019-01-04T12:24:20.130Z,1.50
2019-01-04T12:26:46.942Z,1.50
2019-01-04T12:29:13.754Z,2.00
2019-01-04T12:31:40.701Z,1.50
2019-01-04T12:34:07.519Z,1.47
2019-01-04T12:36:34.339Z,1.63
2019-01-04T12:39:01.298Z,1.20
2019-01-04T12:41:28.191Z,1.70
2019-01-04T12:43:54.982Z,1.23
2019-01-04T12:46:21.830Z,1.40
2019-01-04T12:48:48.646Z,2.40
2019-01-04T12:51:35.114Z,2.07
2019-01-04T12:54:01.926Z,1.90
2019-01-04T12:56:28.719Z,1.47
2019-01-04T12:58:55.562Z,1.53
2019-01-04T13:01:22.357Z,1.43
2019-01-04T13:03:49.158Z,1.47
2019-01-04T13:06:16.200Z,1.80
2019-01-04T13:08:43.012Z,1.50
2019-01-04T13:11:09.805Z,1.80
2019-01-04T13:13:36.690Z,1.60
2019-01-04T13:16:03.827Z,2.07
2019-01-04T13:18:30.794Z,2.53
2019-01-04T13:20:57.715Z,1.90
2019-01-04T13:23:24.631Z,1.70
2019-01-04T13:25:51.474Z,1.73
2019-01-04T13:28:18.452Z,1.90
2019-01-04T13:30:45.446Z,1.70
2019-01-04T13:33:12.413Z,1.50
2019-01-04T13:35:56.437Z,1.40
2019-01-04T13:38:23.522Z,2.40
2019-01-04T13:40:50.312Z,2.70
2019-01-04T13:43:17.321Z,2.60
2019-01-04T13:45:44.294Z,2.83
2019-01-04T13:48:11.111Z,2.73
2019-01-04T13:50:37.937Z,2.87
2019-01-04T13:53:04.838Z,4.17
2019-01-04T13:55:31.642Z,7.10
2019-01-04T13:57:58.483Z,14.70
2019-01-04T14:00:25.310Z,10.77
2019-01-04T14:02:52.107Z,3.60
2019-01-04T14:05:19.046Z,6.73
2019-01-04T14:07:45.854Z,2.80
2019-01-04T14:10:12.976Z,2.20
2019-01-04T14:12:39.801Z,1.27
2019-01-04T14:15:07.134Z,1.33
2019-01-04T14:17:33.946Z,2.07
2019-01-04T14:20:00.795Z,1.30
2019-01-04T14:22:27.742Z,2.10
2019-01-04T14:24:54.693Z,1.27
2019-01-04T14:27:21.662Z,2.83
2019-01-04T14:29:48.670Z,1.33
2019-01-04T14:32:15.488Z,1.33
2019-01-04T14:34:42.319Z,1.00
2019-01-04T14:37:09.330Z,1.53
2019-01-04T14:39:36.148Z,1.33
2019-01-04T14:42:03.187Z,1.70
2019-01-04T14:44:29.986Z,1.27
2019-01-04T14:46:56.785Z,1.60
2019-01-04T14:49:25.525Z,1.50
2019-01-04T14:51:52.344Z,1.93
2019-01-04T14:54:19.152Z,1.20
2019-01-04T14:56:47.192Z,1.53
2019-01-04T14:59:14.114Z,1.57
2019-01-04T15:01:40.924Z,1.70
2019-01-04T15:04:07.758Z,2.03
2019-01-04T15:06:34.706Z,2.50
2019-01-04T15:09:01.662Z,3.33
2019-01-04T15:11:28.611Z,3.00
2019-01-04T15:13:55.499Z,2.20
2019-01-04T15:16:22.556Z,3.03
2019-01-04T15:18:49.510Z,3.40
2019-01-04T15:21:16.310Z,3.73
2019-01-04T15:23:43.150Z,2.97
2019-01-04T15:26:10.045Z,3.07
2019-01-04T15:28:36.852Z,1.90
2019-01-04T15:31:03.748Z,3.00
2019-01-04T15:33:30.711Z,3.43
2019-01-04T15:35:57.705Z,3.80
2019-01-04T15:38:24.497Z,5.03
2019-01-04T15:40:51.427Z,5.10
2019-01-04T15:43:18.442Z,3.50
2019-01-04T15:45:45.255Z,3.30
2019-01-04T15:48:12.204Z,3.40
2019-01-04T15:50:39.014Z,2.07
2019-01-04T15:53:05.822Z,2.30
2019-01-04T15:55:32.693Z,4.77
2019-01-04T15:57:59.642Z,2.50
2019-01-04T16:00:26.565Z,2.20
2019-01-04T16:02:53.597Z,2.20
2019-01-04T16:05:20.394Z,1.90
2019-01-04T16:08:06.871Z,3.27
2019-01-04T16:13:25.314Z,3.50
2019-01-04T16:15:52.106Z,3.30
2019-01-04T16:18:18.910Z,3.00
2019-01-04T16:20:46.569Z,2.70
2019-01-04T16:23:13.481Z,2.67
2019-01-04T16:25:40.288Z,2.60
2019-01-04T16:28:07.214Z,2.87
2019-01-04T16:30:34.105Z,2.67
2019-01-04T16:33:00.993Z,3.03
2019-01-04T16:35:27.841Z,4.23
2019-01-04T16:37:54.792Z,3.90
2019-01-04T16:40:21.602Z,3.57
2019-01-04T16:42:48.449Z,3.37
2019-01-04T16:45:15.337Z,3.27
2019-01-04T16:47:42.173Z,4.23
2019-01-04T16:50:09.252Z,3.60
2019-01-04T16:52:36.064Z,3.23
2019-01-04T16:55:03.434Z,3.87
2019-01-04T16:57:30.360Z,3.90
2019-01-04T16:59:57.162Z,4.27
2019-01-04T17:02:24.027Z,4.20
2019-01-04T17:04:50.858Z,4.33
2019-01-04T17:07:17.674Z,5.07
2019-01-04T17:09:44.606Z,4.30
2019-01-04T17:12:12.595Z,3.97
2019-01-04T17:14:39.527Z,4.27
2019-01-04T17:17:06.434Z,4.60
2019-01-04T17:19:33.270Z,4.23
2019-01-04T17:22:00.197Z,5.00
2019-01-04T17:24:27.014Z,4.77
2019-01-04T17:26:53.955Z,4.87
2019-01-04T17:29:20.866Z,4.13
2019-01-04T17:31:47.661Z,4.50
2019-01-04T17:34:14.514Z,3.40
2019-01-04T17:36:41.418Z,4.13
2019-01-04T17:39:09.919Z,4.00
2019-01-04T17:41:36.749Z,4.67
2019-01-04T17:44:03.650Z,5.00
2019-01-04T17:46:30.575Z,4.23
2019-01-04T17:48:57.505Z,4.17
2019-01-04T17:51:24.390Z,4.50
2019-01-04T17:53:51.407Z,4.27
2019-01-04T17:56:18.259Z,4.90
2019-01-04T17:58:45.183Z,5.13
2019-01-04T18:01:12.087Z,5.33
2019-01-04T18:03:39.028Z,3.97
2019-01-04T18:06:06.050Z,4.53
2019-01-04T18:08:32.866Z,4.80
2019-01-04T18:10:59.707Z,4.43
2019-01-04T18:13:26.622Z,4.57
2019-01-04T18:15:53.560Z,4.17
2019-01-04T18:18:20.502Z,4.53
2019-01-04T18:20:47.439Z,4.60
2019-01-04T18:23:14.218Z,4.50
2019-01-04T18:25:41.047Z,4.40
2019-01-04T18:28:07.938Z,5.03
2019-01-04T18:30:34.852Z,4.80
2019-01-04T18:33:01.710Z,4.47
2019-01-04T18:35:28.741Z,4.40
2019-01-04T18:37:55.583Z,4.20
2019-01-04T18:40:22.580Z,4.47
2019-01-04T18:42:49.374Z,4.60
2019-01-04T18:45:16.288Z,3.43
2019-01-04T18:47:43.226Z,3.87
2019-01-04T18:50:13.360Z,4.13
2019-01-04T18:52:40.285Z,3.40
2019-01-04T18:55:08.468Z,4.07
2019-01-04T18:57:35.518Z,3.50
2019-01-04T19:00:02.742Z,3.77
2019-01-04T19:02:29.602Z,4.17
2019-01-04T19:04:56.402Z,4.43
2019-01-04T19:07:23.223Z,3.90
2019-01-04T19:09:50.166Z,3.70
2019-01-04T19:12:16.978Z,4.20
2019-01-04T19:14:43.811Z,3.67
2019-01-04T19:17:10.645Z,3.53
2019-01-04T19:19:37.445Z,3.17
2019-01-04T19:22:04.242Z,3.83
2019-01-04T19:24:31.074Z,3.67
2019-01-04T19:26:57.880Z,4.50
2019-01-04T19:29:24.871Z,5.03
2019-01-04T19:31:51.709Z,4.27
2019-01-04T19:34:18.519Z,5.00
2019-01-04T19:36:45.337Z,4.43
2019-01-04T19:39:12.187Z,3.57
2019-01-04T19:41:39.077Z,3.40
2019-01-04T19:44:06.001Z,4.17
2019-01-04T19:46:32.822Z,4.37
2019-01-04T19:48:59.620Z,3.97
2019-01-04T19:51:26.529Z,3.43
2019-01-04T19:53:53.391Z,4.27
2019-01-04T19:56:20.290Z,4.33
2019-01-04T19:58:47.216Z,3.63
2019-01-04T20:01:14.060Z,3.63
2019-01-04T20:03:40.867Z,3.80
2019-01-04T20:07:21.898Z,3.80
2019-01-04T20:10:56.405Z,3.83
2019-01-04T20:14:21.241Z,4.67
2019-01-04T20:17:06.238Z,4.03
2019-01-04T20:20:02.878Z,2.80
2019-01-04T20:22:48.111Z,3.53
2019-01-04T20:25:52.808Z,3.30
2019-01-04T20:28:32.689Z,3.60
2019-01-04T20:31:27.201Z,3.93
2019-01-04T20:34:18.799Z,3.83
2019-01-04T20:37:05.293Z,4.33
2019-01-04T20:39:46.570Z,3.97
2019-01-04T20:42:31.645Z,5.93
2019-01-04T20:45:20.948Z,4.37
2019-01-04T20:48:15.298Z,4.43
2019-01-04T20:51:01.767Z,3.33
2019-01-04T20:53:46.898Z,3.90
2019-01-04T20:56:32.021Z,3.60
2019-01-04T20:59:17.357Z,4.10
2019-01-04T21:02:09.635Z,3.90
2019-01-04T21:04:54.581Z,3.93
2019-01-04T21:07:41.042Z,4.07
2019-01-04T21:10:43.446Z,3.87
2019-01-04T21:13:24.178Z,3.50
2019-01-04T21:16:10.787Z,3.13
2019-01-04T21:19:12.418Z,4.00
2019-01-04T21:22:05.713Z,3.67
2019-01-04T21:24:42.346Z,4.63
2019-01-04T21:27:27.741Z,3.77
2019-01-04T21:30:16.982Z,4.67
2019-01-04T21:33:03.503Z,4.47
2019-01-04T21:35:48.391Z,2.87
2019-01-04T21:38:33.650Z,4.20
2019-01-04T21:41:23.008Z,3.60
2019-01-04T21:44:09.490Z,3.40
2019-01-04T21:46:58.555Z,4.87
2019-01-04T21:49:43.494Z,2.87
2019-01-04T21:52:19.138Z,3.23
2019-01-04T21:55:21.102Z,2.97
2019-01-04T21:58:06.426Z,2.70
2019-01-04T22:00:59.071Z,3.33
2019-01-04T22:03:48.202Z,2.90
2019-01-04T22:06:35.292Z,3.27
2019-01-04T22:09:40.654Z,3.00
2019-01-04T22:12:42.184Z,2.63
2019-01-04T22:15:20.329Z,2.77
2019-01-04T22:18:09.522Z,4.37
2019-01-04T22:20:57.826Z,3.37
2019-01-04T22:23:42.886Z,3.00
2019-01-04T22:26:41.518Z,3.30
2019-01-04T22:29:22.678Z,3.20
2019-01-04T22:32:12.222Z,3.90
2019-01-04T22:34:57.091Z,3.10
2019-01-04T22:37:48.949Z,3.30
2019-01-04T22:40:48.213Z,3.07
2019-01-04T22:43:34.670Z,3.80
2019-01-04T22:46:18.526Z,3.50
2019-01-04T22:49:03.649Z,3.43
2019-01-04T22:51:58.594Z,3.47
2019-01-04T22:54:47.964Z,3.83
2019-01-04T22:57:43.459Z,3.57
2019-01-04T23:00:37.608Z,5.10
2019-01-04T23:03:22.954Z,4.23
2019-01-04T23:06:09.262Z,3.50
2019-01-04T23:08:52.718Z,3.60
2019-01-04T23:11:47.849Z,4.43
2019-01-04T23:14:43.498Z,3.90
2019-01-04T23:17:28.041Z,3.70
2019-01-04T23:20:32.570Z,3.50
2019-01-04T23:23:25.078Z,3.20
2019-01-04T23:26:19.537Z,3.90
2019-01-04T23:29:04.209Z,3.10
2019-01-04T23:31:49.273Z,3.97
2019-01-04T23:34:34.342Z,3.83
2019-01-04T23:37:19.817Z,3.87
2019-01-04T23:40:04.910Z,3.93
2019-01-04T23:43:00.423Z,4.30
2019-01-04T23:45:55.701Z,3.90
2019-01-04T23:49:19.325Z,4.40
2019-01-04T23:52:18.158Z,4.90
2019-01-04T23:55:07.965Z,3.57
2019-01-04T23:57:53.110Z,3.30
